Map

Track Data

SID SEASON NUMBER BASIN SUBBASIN NAME ISO_TIME NATURE LAT LON WMO_WIND WMO_PRES WMO_AGENCY TRACK_TYPE DIST2LAND LANDFALL IFLAG USA_AGENCY USA_ATCF_ID USA_LAT USA_LON USA_RECORD USA_STATUS USA_WIND USA_PRES USA_SSHS USA_R34_NE USA_R34_SE USA_R34_SW USA_R34_NW USA_R50_NE USA_R50_SE USA_R50_SW USA_R50_NW USA_R64_NE USA_R64_SE USA_R64_SW USA_R64_NW USA_POCI USA_ROCI USA_RMW USA_EYE TOKYO_LAT TOKYO_LON TOKYO_GRADE TOKYO_WIND TOKYO_PRES TOKYO_R50_DIR TOKYO_R50_LONG TOKYO_R50_SHORT TOKYO_R30_DIR TOKYO_R30_LONG TOKYO_R30_SHORT TOKYO_LAND CMA_LAT CMA_LON CMA_CAT CMA_WIND CMA_PRES HKO_LAT HKO_LON HKO_CAT HKO_WIND HKO_PRES NEWDELHI_LAT NEWDELHI_LON NEWDELHI_GRADE NEWDELHI_WIND NEWDELHI_PRES NEWDELHI_CI NEWDELHI_DP NEWDELHI_POCI REUNION_LAT REUNION_LON REUNION_TYPE REUNION_WIND REUNION_PRES REUNION_TNUM REUNION_CI REUNION_RMW REUNION_R34_NE REUNION_R34_SE REUNION_R34_SW REUNION_R34_NW REUNION_R50_NE REUNION_R50_SE REUNION_R50_SW REUNION_R50_NW REUNION_R64_NE REUNION_R64_SE REUNION_R64_SW REUNION_R64_NW BOM_LAT BOM_LON BOM_TYPE BOM_WIND BOM_PRES BOM_TNUM BOM_CI BOM_RMW BOM_R34_NE BOM_R34_SE BOM_R34_SW BOM_R34_NW BOM_R50_NE BOM_R50_SE BOM_R50_SW BOM_R50_NW BOM_R64_NE BOM_R64_SE BOM_R64_SW BOM_R64_NW BOM_ROCI BOM_POCI BOM_EYE BOM_POS_METHOD BOM_PRES_METHOD NADI_LAT NADI_LON NADI_CAT NADI_WIND NADI_PRES WELLINGTON_LAT WELLINGTON_LON WELLINGTON_WIND WELLINGTON_PRES DS824_LAT DS824_LON DS824_STAGE DS824_WIND DS824_PRES TD9636_LAT TD9636_LON TD9636_STAGE TD9636_WIND TD9636_PRES TD9635_LAT TD9635_LON TD9635_WIND TD9635_PRES TD9635_ROCI NEUMANN_LAT NEUMANN_LON NEUMANN_CLASS NEUMANN_WIND NEUMANN_PRES MLC_LAT MLC_LON MLC_CLASS MLC_WIND MLC_PRES USA_GUST BOM_GUST BOM_GUST_PER REUNION_GUST REUNION_GUST_PER USA_SEAHGT USA_SEARAD_NE USA_SEARAD_SE USA_SEARAD_SW USA_SEARAD_NW STORM_SPEED STORM_DIR
1954344N10082 1954 94 NI BB NOT_NAMED 1954-12-09 18:00:00 TS 10.0000 82.4000 main 192 192 O________O____ jtwc_io IO141954 10.0000 82.4000 -1 10.0000 82.4000 TC 2 0
1954344N10082 1954 94 NI BB NOT_NAMED 1954-12-09 21:00:00 TS 10.0825 82.4000 main 197 197 P________P____ IO141954 10.0825 82.4000 -1 10.0825 82.4000 TC 2 8
1954344N10082 1954 94 NI BB NOT_NAMED 1954-12-10 00:00:00 TS 10.2000 82.4000 main 202 202 O________O____ jtwc_io IO141954 10.2000 82.4000 -1 10.2000 82.4000 TC 25 3 355
1954344N10082 1954 94 NI BB NOT_NAMED 1954-12-10 03:00:00 TS 10.3800 82.4000 main 214 214 P________PO___ IO141954 10.3775 82.4000 -1 10.3775 82.4000 TC 25 10.4000 82.4000 1 4 0
1954344N10082 1954 94 NI BB NOT_NAMED 1954-12-10 06:00:00 TS 10.6094 82.4000 main 227 227 O________OP___ jtwc_io IO141954 10.6000 82.4000 -1 10.6000 82.4000 TC 25 10.6469 82.4000 1 5 0
1954344N10082 1954 94 NI BB NOT_NAMED 1954-12-10 09:00:00 TS 10.8568 82.4000 main 250 250 P________PP___ IO141954 10.8425 82.4000 -1 10.8425 82.4000 TC 25 10.8950 82.4000 1 5 0
1954344N10082 1954 94 NI BB NOT_NAMED 1954-12-10 12:00:00 TS 11.1152 82.4000 main 267 267 O________OP___ jtwc_io IO141954 11.1000 82.4000 -1 11.1000 82.4000 TC 25 11.1456 82.4000 1 5 0
1954344N10082 1954 94 NI BB NOT_NAMED 1954-12-10 15:00:00 TS 11.3667 82.4000 main 269 259 P________PO___ IO141954 11.3500 82.4000 -1 11.3500 82.4000 TC 25 11.4000 82.4000 1 5 0
1954344N10082 1954 94 NI BB NOT_NAMED 1954-12-10 18:00:00 TS 11.6194 82.4000 main 259 248 O________OP___ jtwc_io IO141954 11.6000 82.4000 -1 11.6000 82.4000 TC 25 11.6581 82.4000 1 5 1
1954344N10082 1954 94 NI BB NOT_NAMED 1954-12-10 21:00:00 TS 11.8717 82.4000 main 248 243 P________PP___ IO141954 11.8500 82.4000 -1 11.8500 82.4000 TC 25 11.9150 82.4000 1 5 0
1954344N10082 1954 94 NI BB NOT_NAMED 1954-12-11 00:00:00 TS 12.1215 82.4000 main 243 239 O________OP___ jtwc_io IO141954 12.1000 82.4000 -1 12.1000 82.4000 TC 25 12.1644 82.4000 1 5 2
1954344N10082 1954 94 NI BB NOT_NAMED 1954-12-11 03:00:00 TS 12.3717 82.4000 main 239 238 P________PO___ IO141954 12.3575 82.4000 -1 12.3575 82.4000 TC 25 12.4000 82.4000 1 5 0
1954344N10082 1954 94 NI BB NOT_NAMED 1954-12-11 06:00:00 TS 12.6061 82.4000 main 238 234 O________OP___ jtwc_io IO141954 12.6000 82.4000 -1 12.6000 82.4000 TC 25 12.6184 82.4000 1 4 0
1954344N10082 1954 94 NI BB NOT_NAMED 1954-12-11 09:00:00 TS 12.8125 82.4000 main 234 229 P________PP___ IO141954 12.8075 82.4000 -1 12.8075 82.4000 TC 25 12.8225 82.4000 1 4 3
1954344N10082 1954 94 NI BB NOT_NAMED 1954-12-11 12:00:00 TS 13.0051 82.4000 main 229 227 O________OP___ jtwc_io IO141954 13.0000 82.4000 -1 13.0000 82.4000 TC 25 13.0153 82.4000 1 4 0
1954344N10082 1954 94 NI BB NOT_NAMED 1954-12-11 15:00:00 TS 13.2050 82.4000 main 227 227 P________PO___ IO141954 13.2075 82.4000 -1 13.2075 82.4000 TC 25 13.2000 82.4000 1 4 4
1954344N10082 1954 94 NI BB NOT_NAMED 1954-12-11 18:00:00 TS 13.3918 82.4000 main 227 227 O________OP___ jtwc_io IO141954 13.4000 82.4000 -1 13.4000 82.4000 TC 25 13.3794 82.4000 1 4 4
1954344N10082 1954 94 NI BB NOT_NAMED 1954-12-11 21:00:00 TS 13.5579 82.4000 main 227 226 P________PP___ IO141954 13.5600 82.4000 -1 13.5600 82.4000 TC 25 13.5550 82.4000 1 3 0
1954344N10082 1954 94 NI BB NOT_NAMED 1954-12-12 00:00:00 TS 13.7141 82.4000 main 226 226 O________OP___ jtwc_io IO141954 13.7000 82.4000 -1 13.7000 82.4000 TC 25 13.7281 82.4000 1 3 3
1954344N10082 1954 94 NI BB NOT_NAMED 1954-12-12 03:00:00 NR 13.9000 82.4000 main 227 __________O___ IO141954 -1 TC 13.9000 82.4000 1 4 0

About IBTrACS Database

This database is a web-friendly format of International Best Track Archive for Climate Stewardship (IBTrACS), a global best track data archive curated by NOAA dating back to 1842.

Updated: 2021-11-26